createdAt,value
2018-12-14T00:02:42.087Z,79.90
2018-12-14T00:05:09.880Z,79.60
2018-12-14T00:07:37.458Z,79.60
2018-12-14T00:10:06.203Z,79.90
2018-12-14T00:15:01.400Z,79.80
2018-12-14T00:24:51.846Z,80.10
2018-12-14T00:27:19.843Z,79.80
2018-12-14T00:29:47.747Z,80.00
2018-12-14T00:32:15.834Z,80.10
2018-12-14T00:34:43.503Z,80.10
2018-12-14T00:39:38.773Z,79.70
2018-12-14T00:42:06.357Z,79.60
2018-12-14T00:44:34.202Z,79.80
2018-12-14T00:47:01.770Z,79.90
2018-12-14T00:49:29.342Z,79.90
2018-12-14T00:51:57.466Z,80.00
2018-12-14T00:54:25.097Z,80.00
2018-12-14T00:56:52.655Z,80.40
2018-12-14T00:59:20.255Z,80.60
2018-12-14T01:01:47.921Z,80.60
2018-12-14T01:04:15.505Z,80.60
2018-12-14T01:06:43.242Z,80.50
2018-12-14T01:09:10.807Z,80.50
2018-12-14T01:11:38.380Z,80.50
2018-12-14T01:14:05.959Z,80.40
2018-12-14T01:16:33.546Z,80.60
2018-12-14T01:19:01.260Z,80.50
2018-12-14T01:21:28.845Z,78.90
2018-12-14T01:23:56.422Z,80.40
2018-12-14T01:26:23.997Z,80.40
2018-12-14T01:28:51.597Z,80.40
2018-12-14T01:31:19.268Z,80.20
2018-12-14T01:36:14.452Z,80.40
2018-12-14T01:38:42.276Z,80.40
2018-12-14T01:41:09.884Z,80.10
2018-12-14T01:43:37.441Z,83.10
2018-12-14T01:46:05.020Z,80.60
2018-12-14T01:48:32.627Z,80.70
2018-12-14T01:53:27.845Z,80.90
2018-12-14T01:55:55.432Z,80.90
2018-12-14T02:00:50.640Z,81.10
2018-12-14T02:03:18.495Z,81.20
2018-12-14T02:05:46.087Z,81.10
2018-12-14T02:08:13.785Z,81.10
2018-12-14T02:10:41.382Z,81.10
2018-12-14T02:15:36.830Z,80.50
2018-12-14T02:18:04.441Z,80.60
2018-12-14T02:20:32.057Z,80.60
2018-12-14T02:22:59.755Z,80.90
2018-12-14T02:25:27.373Z,80.40
2018-12-14T02:27:54.968Z,80.10
2018-12-14T02:37:51.432Z,81.10
2018-12-14T02:40:19.126Z,81.30
2018-12-14T02:42:46.724Z,81.30
2018-12-14T02:55:05.075Z,80.90
2018-12-14T03:00:00.310Z,81.10
2018-12-14T03:02:27.892Z,80.60
2018-12-14T03:04:55.464Z,80.80
2018-12-14T03:07:23.101Z,80.90
2018-12-14T03:09:50.764Z,81.30
2018-12-14T03:12:18.392Z,81.20
2018-12-14T03:14:45.991Z,81.10
2018-12-14T03:17:13.691Z,80.90
2018-12-14T03:19:41.474Z,81.10
2018-12-14T03:22:09.344Z,84.60
2018-12-14T03:24:36.905Z,81.30
2018-12-14T03:27:04.487Z,81.20
2018-12-14T03:29:32.096Z,81.00
2018-12-14T03:31:59.961Z,80.60
2018-12-14T03:34:27.658Z,80.80
2018-12-14T03:36:55.241Z,80.90
2018-12-14T03:39:22.807Z,81.10
2018-12-14T03:41:50.406Z,81.20
2018-12-14T03:44:18.322Z,81.30
2018-12-14T03:46:45.910Z,81.20
2018-12-14T03:49:13.485Z,80.90
2018-12-14T03:51:41.068Z,80.90
2018-12-14T03:54:08.647Z,81.00
2018-12-14T03:56:36.225Z,81.10
2018-12-14T03:59:03.800Z,81.10
2018-12-14T04:01:31.367Z,81.20
2018-12-14T04:03:59.129Z,81.20
2018-12-14T04:06:26.738Z,81.30
2018-12-14T04:08:54.316Z,79.00
2018-12-14T04:11:21.973Z,81.30
2018-12-14T04:13:49.628Z,81.10
2018-12-14T04:18:45.144Z,81.10
2018-12-14T04:21:12.710Z,81.30
2018-12-14T04:23:40.813Z,81.50
2018-12-14T04:26:08.372Z,81.20
2018-12-14T04:31:03.753Z,81.30
2018-12-14T04:35:59.929Z,81.50
2018-12-14T04:38:27.531Z,81.90
2018-12-14T04:43:27.001Z,81.50
2018-12-14T04:48:22.607Z,81.60
2018-12-14T04:50:50.190Z,81.60
2018-12-14T04:55:46.090Z,81.80
2018-12-14T04:58:13.672Z,81.70
2018-12-14T05:00:41.244Z,81.70
2018-12-14T05:08:04.289Z,81.50
2018-12-14T05:10:31.873Z,81.50
2018-12-14T05:15:27.239Z,81.80
2018-12-14T05:17:54.831Z,81.80
2018-12-14T05:20:22.538Z,82.00
2018-12-14T05:52:23.229Z,82.00
2018-12-14T05:54:50.801Z,82.00
2018-12-14T05:57:18.442Z,82.00
2018-12-14T05:59:46.106Z,82.00
2018-12-14T06:02:14.019Z,81.90
2018-12-14T06:07:09.180Z,81.90
2018-12-14T06:09:36.754Z,82.00
2018-12-14T06:12:04.701Z,82.00
2018-12-14T06:14:32.567Z,82.00
2018-12-14T06:17:00.289Z,82.00
2018-12-14T06:19:27.893Z,82.00
2018-12-14T06:21:55.497Z,81.70
2018-12-14T06:24:23.150Z,81.20
2018-12-14T06:26:50.770Z,81.30
2018-12-14T06:29:19.190Z,81.40
2018-12-14T06:31:46.825Z,81.60
2018-12-14T06:34:14.453Z,81.50
2018-12-14T06:39:09.702Z,82.00
2018-12-14T06:41:37.323Z,82.40
2018-12-14T06:44:04.893Z,82.00
2018-12-14T06:49:00.160Z,82.10
2018-12-14T06:51:27.762Z,81.90
2018-12-14T06:53:55.345Z,81.70
2018-12-14T06:56:22.939Z,81.50
2018-12-14T07:01:18.295Z,81.70
2018-12-14T07:16:04.064Z,81.00
2018-12-14T07:18:31.631Z,81.00
2018-12-14T07:23:26.981Z,82.20
2018-12-14T07:25:54.585Z,81.30
2018-12-14T07:28:22.158Z,81.20
2018-12-14T07:30:49.748Z,81.10
2018-12-14T07:33:17.537Z,80.60
2018-12-14T07:35:45.128Z,80.80
2018-12-14T07:38:12.698Z,81.10
2018-12-14T07:45:35.787Z,80.70
2018-12-14T07:50:31.412Z,80.80
2018-12-14T07:52:58.985Z,80.90
2018-12-14T07:55:26.586Z,81.40
2018-12-14T07:57:54.190Z,80.80
2018-12-14T08:02:49.413Z,80.60
2018-12-14T08:05:17.052Z,80.50
2018-12-14T08:07:44.831Z,80.60
2018-12-14T08:10:12.529Z,80.50
2018-12-14T08:12:40.092Z,80.40
2018-12-14T08:17:37.564Z,80.10
2018-12-14T08:20:05.448Z,80.60
2018-12-14T08:22:33.103Z,80.70
2018-12-14T08:25:00.837Z,80.70
2018-12-14T08:27:28.464Z,80.60
2018-12-14T08:29:56.029Z,80.50
2018-12-14T08:32:23.592Z,80.40
2018-12-14T08:34:51.444Z,80.10
2018-12-14T08:37:20.064Z,79.90
2018-12-14T08:39:47.740Z,79.70
2018-12-14T08:42:15.309Z,80.50
2018-12-14T08:44:42.900Z,79.50
2018-12-14T08:47:10.477Z,79.30
2018-12-14T08:49:38.063Z,79.40
2018-12-14T08:52:05.620Z,79.50
2018-12-14T08:54:33.180Z,80.30
2018-12-14T08:57:00.766Z,79.40
2018-12-14T08:59:28.390Z,79.40
2018-12-14T09:01:55.979Z,79.30
2018-12-14T09:04:23.545Z,81.30
2018-12-14T09:06:51.122Z,79.40
2018-12-14T09:09:20.471Z,79.40
2018-12-14T09:11:48.401Z,79.30
2018-12-14T09:14:16.015Z,79.20
2018-12-14T09:16:43.624Z,82.60
2018-12-14T09:19:11.362Z,79.30
2018-12-14T09:21:39.521Z,79.60
2018-12-14T09:24:07.086Z,79.40
2018-12-14T09:26:34.652Z,79.20
2018-12-14T09:29:02.843Z,79.80
2018-12-14T09:31:30.861Z,78.60
2018-12-14T09:33:58.424Z,78.40
2018-12-14T09:36:26.041Z,78.60
2018-12-14T09:38:53.618Z,78.90
2018-12-14T09:41:21.237Z,79.10
2018-12-14T09:43:54.394Z,79.10
2018-12-14T09:46:18.633Z,79.00
2018-12-14T09:48:46.206Z,78.80
2018-12-14T09:51:13.788Z,78.60
2018-12-14T09:53:41.372Z,79.10
2018-12-14T09:56:08.957Z,79.00
2018-12-14T09:58:36.530Z,78.70
2018-12-14T10:01:04.155Z,78.90
2018-12-14T10:03:31.799Z,79.10
2018-12-14T10:05:59.621Z,78.60
2018-12-14T10:08:27.210Z,78.40
2018-12-14T10:13:22.914Z,77.90
2018-12-14T10:18:19.154Z,77.90
2018-12-14T10:20:46.994Z,78.00
2018-12-14T10:28:09.764Z,77.50
2018-12-14T10:30:37.332Z,77.50
2018-12-14T10:33:04.904Z,77.90
2018-12-14T10:35:32.471Z,78.30
2018-12-14T10:40:27.676Z,77.70
2018-12-14T10:45:24.707Z,77.50
2018-12-14T10:50:19.895Z,77.40
2018-12-14T10:52:48.170Z,77.60
2018-12-14T10:55:15.795Z,77.70
2018-12-14T11:00:15.536Z,76.80
2018-12-14T11:05:10.696Z,76.80
2018-12-14T11:07:38.340Z,76.80
2018-12-14T11:10:07.485Z,76.50
2018-12-14T11:12:35.062Z,76.60
2018-12-14T11:15:02.789Z,76.80
2018-12-14T11:17:30.419Z,77.30
2018-12-14T11:19:58.251Z,77.10
2018-12-14T11:22:25.946Z,76.80
2018-12-14T11:24:53.520Z,76.90
2018-12-14T11:27:21.103Z,77.00
2018-12-14T11:32:17.711Z,77.00
2018-12-14T11:47:03.245Z,76.50
2018-12-14T11:51:58.419Z,77.00
2018-12-14T11:59:21.176Z,76.80
2018-12-14T12:04:16.470Z,76.30
2018-12-14T12:06:44.054Z,76.30
2018-12-14T12:09:11.847Z,76.40
2018-12-14T12:11:39.414Z,76.20
2018-12-14T12:14:07.011Z,76.70
2018-12-14T12:16:34.584Z,74.60
2018-12-14T12:19:02.177Z,76.50
2018-12-14T12:21:30.199Z,76.80
2018-12-14T12:23:58.086Z,76.70
2018-12-14T12:26:25.730Z,76.70
2018-12-14T12:28:53.348Z,77.00
2018-12-14T12:31:20.966Z,76.80
2018-12-14T12:36:16.555Z,77.10
2018-12-14T12:38:44.171Z,76.80
2018-12-14T12:41:11.767Z,76.80
2018-12-14T12:43:39.412Z,76.80
2018-12-14T12:46:07.035Z,77.10
2018-12-14T12:48:34.988Z,77.00
2018-12-14T12:51:03.328Z,76.80
2018-12-14T12:53:31.316Z,76.60
2018-12-14T12:55:58.949Z,76.50
2018-12-14T12:58:26.523Z,76.90
2018-12-14T13:00:54.149Z,76.70
2018-12-14T13:03:21.889Z,76.50
2018-12-14T13:05:49.555Z,77.10
2018-12-14T13:10:45.160Z,76.70
2018-12-14T13:20:35.847Z,76.60
2018-12-14T13:23:04.563Z,76.90
2018-12-14T13:32:56.906Z,76.50
2018-12-14T13:35:25.360Z,76.60
2018-12-14T13:42:48.409Z,76.90
2018-12-14T13:45:16.111Z,77.60
2018-12-14T13:47:43.850Z,76.50
2018-12-14T13:50:11.649Z,76.70
2018-12-14T13:52:39.242Z,76.60
2018-12-14T13:57:34.885Z,76.60
2018-12-14T14:00:02.543Z,76.10
2018-12-14T14:02:30.195Z,76.40
2018-12-14T14:04:57.785Z,76.30
2018-12-14T14:07:25.416Z,76.40
2018-12-14T14:09:53.011Z,76.40
2018-12-14T14:14:52.973Z,76.00
2018-12-14T14:17:18.634Z,76.10
2018-12-14T14:19:46.618Z,76.10
2018-12-14T14:22:14.462Z,75.90
2018-12-14T14:24:42.067Z,76.20
2018-12-14T14:27:09.756Z,76.50
2018-12-14T14:29:37.445Z,76.20
2018-12-14T14:34:32.898Z,76.30
2018-12-14T14:37:00.619Z,76.00
2018-12-14T14:39:28.195Z,76.10
2018-12-14T14:41:57.611Z,76.20
2018-12-14T14:44:25.183Z,76.50
2018-12-14T14:49:20.386Z,76.30
2018-12-14T14:51:48.487Z,74.00
2018-12-14T14:54:16.122Z,76.50
2018-12-14T14:56:43.744Z,76.70
2018-12-14T14:59:11.391Z,76.50
2018-12-14T15:01:39.129Z,76.40
2018-12-14T15:04:06.942Z,76.60
2018-12-14T15:06:34.537Z,76.60
2018-12-14T15:09:02.256Z,76.60
2018-12-14T15:13:57.525Z,76.50
2018-12-14T15:16:25.113Z,76.70
2018-12-14T15:18:52.698Z,76.60
2018-12-14T15:21:20.556Z,76.30
2018-12-14T15:26:16.890Z,76.40
2018-12-14T15:31:12.268Z,75.90
2018-12-14T15:33:39.873Z,74.50
2018-12-14T15:36:07.445Z,74.50
2018-12-14T15:38:35.039Z,74.90
2018-12-14T15:43:30.200Z,75.80
2018-12-14T15:45:58.054Z,75.60
2018-12-14T15:50:53.272Z,78.90
2018-12-14T15:53:20.911Z,75.50
2018-12-14T15:55:48.559Z,75.60
2018-12-14T15:58:16.303Z,75.60
2018-12-14T16:00:43.926Z,75.40
2018-12-14T16:03:11.537Z,75.40
2018-12-14T16:08:06.975Z,75.60
2018-12-14T16:10:34.792Z,75.80
2018-12-14T16:15:30.104Z,76.20
2018-12-14T16:17:58.045Z,75.70
2018-12-14T16:20:25.872Z,75.30
2018-12-14T16:25:21.264Z,74.70
2018-12-14T16:32:45.493Z,75.30
2018-12-14T16:35:13.091Z,75.60
2018-12-14T16:37:40.745Z,76.90
2018-12-14T16:42:36.019Z,75.70
2018-12-14T16:47:31.707Z,75.60
2018-12-14T16:52:27.086Z,75.40
2018-12-14T16:54:54.786Z,75.30
2018-12-14T16:57:22.831Z,75.20
2018-12-14T17:02:18.455Z,75.00
2018-12-14T17:04:46.111Z,74.90
2018-12-14T17:17:04.519Z,74.90
2018-12-14T17:24:27.674Z,78.10
2018-12-14T17:49:06.019Z,74.40
2018-12-14T17:56:29.532Z,75.60
2018-12-14T17:58:57.125Z,75.00
2018-12-14T18:08:47.512Z,75.10
2018-12-14T18:11:15.151Z,75.30
2018-12-14T18:13:42.728Z,75.40
2018-12-14T18:16:10.798Z,75.40
2018-12-14T18:21:06.210Z,75.20
2018-12-14T18:23:34.037Z,75.70
2018-12-14T18:26:01.677Z,75.60
2018-12-14T18:28:29.249Z,75.00
2018-12-14T18:30:56.919Z,74.70
2018-12-14T18:33:24.711Z,75.30
2018-12-14T18:35:52.599Z,75.50
2018-12-14T18:38:20.205Z,75.60
2018-12-14T18:43:15.856Z,75.70
2018-12-14T18:45:43.483Z,75.40
2018-12-14T18:48:11.118Z,75.10
2018-12-14T18:50:38.744Z,74.80
2018-12-14T18:53:07.534Z,74.50
2018-12-14T18:58:03.276Z,75.50
2018-12-14T19:00:30.952Z,73.40
2018-12-14T19:02:58.502Z,75.60
2018-12-14T19:05:26.084Z,75.30
2018-12-14T19:07:53.673Z,75.20
2018-12-14T19:10:21.254Z,77.40
2018-12-14T19:12:49.038Z,75.10
2018-12-14T19:17:44.359Z,74.90
2018-12-14T19:20:12.027Z,74.80
2018-12-14T19:22:39.620Z,74.70
2018-12-14T19:25:07.458Z,74.90
2018-12-14T19:27:35.098Z,74.90
2018-12-14T19:30:03.018Z,75.00
2018-12-14T19:32:30.606Z,74.90
2018-12-14T19:34:58.374Z,75.00
2018-12-14T19:37:26.023Z,74.80
2018-12-14T19:42:21.228Z,75.40
2018-12-14T19:44:50.349Z,75.60
2018-12-14T19:47:18.517Z,75.40
2018-12-14T19:49:46.314Z,75.30
2018-12-14T19:52:14.065Z,75.20
2018-12-14T19:54:41.936Z,75.70
2018-12-14T19:57:09.654Z,77.90
2018-12-14T19:59:37.221Z,75.40
2018-12-14T20:02:04.834Z,75.10
2018-12-14T20:04:32.434Z,75.00
2018-12-14T20:07:00.045Z,74.90
2018-12-14T20:09:27.767Z,75.30
2018-12-14T20:11:55.372Z,75.40
2018-12-14T20:14:22.963Z,74.90
2018-12-14T20:16:50.547Z,74.70
2018-12-14T20:19:18.323Z,74.90
2018-12-14T20:21:45.895Z,75.00
2018-12-14T20:24:13.484Z,74.80
2018-12-14T20:26:41.066Z,74.90
2018-12-14T20:29:08.680Z,74.80
2018-12-14T20:31:36.273Z,74.70
2018-12-14T20:34:03.912Z,74.80
2018-12-14T20:36:31.727Z,75.10
2018-12-14T20:38:59.301Z,75.00
2018-12-14T20:41:26.901Z,74.90
2018-12-14T20:43:54.551Z,74.70
2018-12-14T20:46:22.122Z,74.70
2018-12-14T20:48:49.801Z,75.30
2018-12-14T20:51:17.532Z,74.90
2018-12-14T20:53:45.770Z,75.00
2018-12-14T21:01:08.793Z,75.30
2018-12-14T21:03:36.419Z,75.40
2018-12-14T21:08:31.607Z,75.10
2018-12-14T21:18:22.027Z,75.80
2018-12-14T21:20:49.756Z,75.90
2018-12-14T21:23:17.560Z,76.00
2018-12-14T21:25:45.254Z,75.60
2018-12-14T21:28:12.868Z,75.60
2018-12-14T21:30:41.509Z,75.20
2018-12-14T21:33:09.099Z,75.20
2018-12-14T21:38:07.702Z,75.90
2018-12-14T21:40:35.595Z,76.10
2018-12-14T21:57:49.340Z,75.30
2018-12-14T22:00:17.023Z,75.20
2018-12-14T22:02:44.597Z,75.50
2018-12-14T22:05:12.199Z,75.60
2018-12-14T22:07:39.780Z,75.80
2018-12-14T22:10:07.989Z,76.10
2018-12-14T22:12:35.655Z,76.30
2018-12-14T22:15:03.866Z,76.40
2018-12-14T22:19:59.082Z,76.30
2018-12-14T22:29:50.303Z,76.80
2018-12-14T22:34:46.493Z,76.70
2018-12-14T22:37:14.080Z,76.40
2018-12-14T22:42:09.573Z,76.20
2018-12-14T22:44:37.164Z,76.00
2018-12-14T22:47:04.761Z,76.10
2018-12-14T22:49:32.350Z,75.80
2018-12-14T22:51:59.927Z,75.90
2018-12-14T22:54:27.526Z,76.20
2018-12-14T22:56:55.127Z,76.50
2018-12-14T22:59:22.688Z,78.70
2018-12-14T23:04:18.008Z,76.40
2018-12-14T23:06:45.594Z,76.20
2018-12-14T23:09:13.232Z,76.20
2018-12-14T23:26:27.390Z,76.80
2018-12-14T23:33:50.537Z,77.00
2018-12-14T23:41:13.754Z,77.10
2018-12-14T23:43:41.378Z,77.10
2018-12-14T23:46:09.258Z,77.10
2018-12-14T23:51:04.463Z,76.80
2018-12-14T23:53:32.057Z,76.90
2018-12-14T23:55:59.692Z,77.00
2018-12-14T23:58:27.283Z,76.90
